createdAt,value
2022-09-03T00:01:03.755Z,21.30
2022-09-03T00:03:34.042Z,21.30
2022-09-03T00:06:18.336Z,21.30
2022-09-03T00:08:50.923Z,21.30
2022-09-03T00:11:29.535Z,21.20
2022-09-03T00:14:12.305Z,21.10
2022-09-03T00:16:54.384Z,21.10
2022-09-03T00:19:32.661Z,21.00
2022-09-03T00:22:11.028Z,21.00
2022-09-03T00:24:41.287Z,21.00
2022-09-03T00:27:17.441Z,20.90
2022-09-03T00:30:10.437Z,21.00
2022-09-03T00:32:47.458Z,20.90
2022-09-03T00:35:18.181Z,20.90
2022-09-03T00:37:45.145Z,20.90
2022-09-03T00:40:28.548Z,20.90
2022-09-03T00:43:21.761Z,20.90
2022-09-03T00:45:55.575Z,20.90
2022-09-03T00:48:29.379Z,20.90
2022-09-03T00:51:20.793Z,20.90
2022-09-03T00:54:02.875Z,20.90
2022-09-03T00:56:32.814Z,20.90
2022-09-03T00:59:37.891Z,20.90
2022-09-03T01:02:09.290Z,20.90
2022-09-03T01:04:53.701Z,20.90
2022-09-03T01:07:27.119Z,20.90
2022-09-03T01:10:06.951Z,20.90
2022-09-03T01:12:48.667Z,20.90
2022-09-03T01:15:25.671Z,21.00
2022-09-03T01:18:34.727Z,21.10
2022-09-03T01:21:43.017Z,21.10
2022-09-03T01:24:11.169Z,21.10
2022-09-03T01:27:32.443Z,21.10
2022-09-03T01:30:05.341Z,21.00
2022-09-03T01:33:01.502Z,21.00
2022-09-03T01:35:40.695Z,21.00
2022-09-03T01:38:13.195Z,20.90
2022-09-03T01:40:46.979Z,20.90
2022-09-03T01:43:37.929Z,20.90
2022-09-03T01:46:19.472Z,20.80
2022-09-03T01:49:22.283Z,20.80
2022-09-03T01:52:05.908Z,20.70
2022-09-03T01:54:44.732Z,20.60
2022-09-03T01:57:39.262Z,20.60
2022-09-03T02:00:20.200Z,20.50
2022-09-03T02:02:51.125Z,20.50
2022-09-03T02:05:25.760Z,20.50
2022-09-03T02:08:03.206Z,20.50
2022-09-03T02:10:37.783Z,20.50
2022-09-03T02:13:16.012Z,20.50
2022-09-03T02:15:46.432Z,20.60
2022-09-03T02:18:18.766Z,20.50
2022-09-03T02:20:48.085Z,20.50
2022-09-03T02:23:16.175Z,20.50
2022-09-03T02:25:48.281Z,20.50
2022-09-03T02:28:17.492Z,20.50
2022-09-03T02:30:45.145Z,20.40
2022-09-03T02:33:12.746Z,20.40
2022-09-03T02:35:40.757Z,20.40
2022-09-03T02:38:17.149Z,20.40
2022-09-03T02:40:45.008Z,20.40
2022-09-03T02:43:35.298Z,20.40
2022-09-03T02:46:05.027Z,20.50
2022-09-03T02:48:33.124Z,20.40
2022-09-03T02:51:00.077Z,20.40
2022-09-03T02:53:29.001Z,20.40
2022-09-03T02:56:00.496Z,20.40
2022-09-03T02:58:28.956Z,20.40
2022-09-03T03:00:55.986Z,20.40
2022-09-03T03:03:22.971Z,20.40
2022-09-03T03:05:53.428Z,20.40
2022-09-03T03:08:25.213Z,20.40
2022-09-03T03:10:54.179Z,20.40
2022-09-03T03:13:21.191Z,20.40
2022-09-03T03:15:48.986Z,20.40
2022-09-03T03:18:17.529Z,20.40
2022-09-03T03:20:44.736Z,20.40
2022-09-03T03:23:11.749Z,20.40
2022-09-03T03:25:39.742Z,20.40
2022-09-03T03:28:08.104Z,20.40
2022-09-03T03:30:39.871Z,20.40
2022-09-03T03:33:07.600Z,20.40
2022-09-03T03:35:35.359Z,20.40
2022-09-03T03:38:02.689Z,20.40
2022-09-03T03:40:29.635Z,20.30
2022-09-03T03:42:58.488Z,20.30
2022-09-03T03:45:25.619Z,20.30
2022-09-03T03:47:52.755Z,20.30
2022-09-03T03:50:19.778Z,20.20
2022-09-03T03:52:48.804Z,20.30
2022-09-03T03:55:15.923Z,20.20
2022-09-03T03:57:43.136Z,20.20
2022-09-03T04:00:13.362Z,20.20
2022-09-03T04:02:43.071Z,20.20
2022-09-03T04:05:10.711Z,20.10
2022-09-03T04:07:38.590Z,20.10
2022-09-03T04:10:06.418Z,20.10
2022-09-03T04:12:33.389Z,20.10
2022-09-03T04:15:00.325Z,20.10
2022-09-03T04:17:28.432Z,20.10
2022-09-03T04:19:55.408Z,20.00
2022-09-03T04:22:22.384Z,19.90
2022-09-03T04:24:49.446Z,19.90
2022-09-03T04:27:16.371Z,19.80
2022-09-03T04:29:43.320Z,19.80
2022-09-03T04:32:28.731Z,19.80
2022-09-03T04:34:55.924Z,19.70
2022-09-03T04:37:23.004Z,19.70
2022-09-03T04:39:50.628Z,19.60
2022-09-03T04:42:17.586Z,19.60
2022-09-03T04:44:44.531Z,19.60
2022-09-03T04:47:11.503Z,19.60
2022-09-03T04:49:40.196Z,19.50
2022-09-03T04:52:07.129Z,19.60
2022-09-03T04:54:34.254Z,19.60
2022-09-03T04:57:01.213Z,19.60
2022-09-03T04:59:28.168Z,19.60
2022-09-03T05:01:56.882Z,19.60
2022-09-03T05:04:23.989Z,19.70
2022-09-03T05:06:50.976Z,19.70
2022-09-03T05:09:17.928Z,19.80
2022-09-03T05:11:45.081Z,19.80
2022-09-03T05:14:12.851Z,19.90
2022-09-03T05:16:39.937Z,20.00
2022-09-03T05:19:08.335Z,20.10
2022-09-03T05:21:36.272Z,20.20
2022-09-03T05:24:04.243Z,20.30
2022-09-03T05:26:34.195Z,20.70
2022-09-03T05:29:07.593Z,21.20
2022-09-03T05:31:39.012Z,21.70
2022-09-03T05:34:07.065Z,22.10
2022-09-03T05:36:36.487Z,22.30
2022-09-03T05:39:07.230Z,22.50
2022-09-03T05:41:34.727Z,22.60
2022-09-03T05:44:02.228Z,22.50
2022-09-03T05:46:33.558Z,22.40
2022-09-03T05:49:07.861Z,22.20
2022-09-03T05:51:36.915Z,22.00
2022-09-03T05:54:04.161Z,21.90
2022-09-03T05:56:33.434Z,21.80
2022-09-03T05:59:03.459Z,21.80
2022-09-03T06:01:45.795Z,21.80
2022-09-03T06:04:18.971Z,21.90
2022-09-03T06:06:47.678Z,22.00
2022-09-03T06:09:18.052Z,22.20
2022-09-03T06:11:46.283Z,22.40
2022-09-03T06:14:14.752Z,22.60
2022-09-03T06:16:44.400Z,22.80
2022-09-03T06:19:13.212Z,23.00
2022-09-03T06:21:45.215Z,23.20
2022-09-03T06:24:14.965Z,23.30
2022-09-03T06:26:42.905Z,23.30
2022-09-03T06:29:10.648Z,23.50
2022-09-03T06:31:39.831Z,23.60
2022-09-03T06:34:07.571Z,24.00
2022-09-03T06:36:34.650Z,24.30
2022-09-03T06:39:01.842Z,24.60
2022-09-03T06:41:33.135Z,25.00
2022-09-03T06:44:03.542Z,25.50
2022-09-03T06:46:38.823Z,26.10
2022-09-03T06:49:05.871Z,26.70
2022-09-03T06:51:34.132Z,27.40
2022-09-03T06:54:09.555Z,28.10
2022-09-03T06:56:40.490Z,28.90
2022-09-03T06:59:15.210Z,29.50
2022-09-03T07:01:45.545Z,30.30
2022-09-03T07:04:16.885Z,31.10
2022-09-03T07:06:46.543Z,31.90
2022-09-03T07:09:15.428Z,32.60
2022-09-03T07:11:48.130Z,33.30
2022-09-03T07:14:19.515Z,33.90
2022-09-03T07:16:48.027Z,34.10
2022-09-03T07:19:15.885Z,34.10
2022-09-03T07:21:48.351Z,34.50
2022-09-03T07:24:17.087Z,35.10
2022-09-03T07:26:46.440Z,35.60
2022-09-03T07:29:15.798Z,35.50
2022-09-03T07:31:43.983Z,35.30
2022-09-03T07:34:13.151Z,34.90
2022-09-03T07:36:43.035Z,34.80
2022-09-03T07:39:11.886Z,34.70
2022-09-03T07:41:42.532Z,34.40
2022-09-03T07:44:10.004Z,34.50
2022-09-03T07:46:38.438Z,34.60
2022-09-03T07:49:06.423Z,34.70
2022-09-03T07:51:38.524Z,34.90
2022-09-03T07:54:10.071Z,34.90
2022-09-03T07:56:38.252Z,34.10
2022-09-03T07:59:05.750Z,32.90
2022-09-03T08:01:34.433Z,31.90
2022-09-03T08:04:02.874Z,31.30
2022-09-03T08:06:31.178Z,30.90
2022-09-03T08:09:04.943Z,30.40
2022-09-03T08:11:36.714Z,30.00
2022-09-03T08:14:07.671Z,29.40
2022-09-03T08:16:41.916Z,28.80
2022-09-03T08:19:09.172Z,28.50
2022-09-03T08:21:36.711Z,28.30
2022-09-03T08:24:04.357Z,28.20
2022-09-03T08:26:36.523Z,28.10
2022-09-03T08:29:04.570Z,28.00
2022-09-03T08:31:32.745Z,28.00
2022-09-03T08:34:06.680Z,28.00
2022-09-03T08:36:36.531Z,28.00
2022-09-03T08:39:09.779Z,28.10
2022-09-03T08:41:44.476Z,28.10
2022-09-03T08:44:48.916Z,28.10
2022-09-03T08:47:27.487Z,28.00
2022-09-03T08:50:14.553Z,28.10
2022-09-03T08:53:01.966Z,28.30
2022-09-03T08:55:36.218Z,28.30
2022-09-03T08:58:16.628Z,28.30
2022-09-03T09:01:11.891Z,28.20
2022-09-03T09:04:03.599Z,28.20
2022-09-03T09:06:42.790Z,28.30
2022-09-03T09:09:36.104Z,28.30
2022-09-03T09:12:18.144Z,28.40
2022-09-03T09:15:07.076Z,28.30
2022-09-03T09:18:03.673Z,28.00
2022-09-03T09:20:43.094Z,27.90
2022-09-03T09:23:33.369Z,28.00
2022-09-03T09:26:06.295Z,28.30
2022-09-03T09:28:38.495Z,28.40
2022-09-03T09:31:15.455Z,28.30
2022-09-03T09:33:43.390Z,28.40
2022-09-03T09:36:15.516Z,28.40
2022-09-03T09:38:43.891Z,28.40
2022-09-03T09:41:20.280Z,28.40
2022-09-03T09:43:48.277Z,28.30
2022-09-03T09:46:20.847Z,28.30
2022-09-03T09:48:51.874Z,28.60
2022-09-03T09:51:21.099Z,28.80
2022-09-03T09:53:49.044Z,28.60
2022-09-03T09:56:24.600Z,28.60
2022-09-03T09:59:06.388Z,28.70
2022-09-03T10:01:34.683Z,28.80
2022-09-03T10:04:10.802Z,28.70
2022-09-03T10:06:57.150Z,28.70
2022-09-03T10:09:32.741Z,28.60
2022-09-03T10:12:27.751Z,28.40
2022-09-03T10:15:13.158Z,28.40
2022-09-03T10:17:50.716Z,28.60
2022-09-03T10:20:33.945Z,28.90
2022-09-03T10:23:06.568Z,29.20
2022-09-03T10:25:53.833Z,29.40
2022-09-03T10:28:25.157Z,29.40
2022-09-03T10:31:12.014Z,29.40
2022-09-03T10:33:44.835Z,29.50
2022-09-03T10:36:16.129Z,29.90
2022-09-03T10:38:44.668Z,30.50
2022-09-03T10:41:54.756Z,30.90
2022-09-03T10:44:57.318Z,30.50
2022-09-03T10:48:08.168Z,30.90
2022-09-03T10:50:48.435Z,32.10
2022-09-03T10:54:00.151Z,32.10
2022-09-03T10:57:01.640Z,32.20
2022-09-03T10:59:51.293Z,32.10
2022-09-03T11:02:26.948Z,31.80
2022-09-03T11:05:06.372Z,31.80
2022-09-03T11:08:14.402Z,32.00
2022-09-03T11:10:50.711Z,31.60
2022-09-03T11:13:54.909Z,30.80
2022-09-03T11:16:31.254Z,30.70
2022-09-03T11:19:05.938Z,30.50
2022-09-03T11:21:35.462Z,30.50
2022-09-03T11:24:09.728Z,30.50
2022-09-03T11:26:37.771Z,30.50
2022-09-03T11:29:20.873Z,30.60
2022-09-03T11:31:50.849Z,30.40
2022-09-03T11:34:33.903Z,30.40
2022-09-03T11:37:18.654Z,30.30
2022-09-03T11:39:54.793Z,29.60
2022-09-03T11:42:28.891Z,29.30
2022-09-03T11:45:01.559Z,29.10
2022-09-03T11:47:40.648Z,29.10
2022-09-03T11:50:09.948Z,29.00
2022-09-03T11:52:40.666Z,28.80
2022-09-03T11:55:08.424Z,28.80
2022-09-03T11:57:43.771Z,28.70
2022-09-03T12:00:24.855Z,28.70
2022-09-03T12:02:59.102Z,28.50
2022-09-03T12:05:38.155Z,28.40
2022-09-03T12:08:36.740Z,28.30
2022-09-03T12:11:20.634Z,28.40
2022-09-03T12:13:58.512Z,28.60
2022-09-03T12:16:28.618Z,28.60
2022-09-03T12:19:07.062Z,28.70
2022-09-03T12:21:41.040Z,28.80
2022-09-03T12:24:13.499Z,29.00
2022-09-03T12:26:42.952Z,29.10
2022-09-03T12:29:28.186Z,29.20
2022-09-03T12:32:11.834Z,29.40
2022-09-03T12:34:38.925Z,29.10
2022-09-03T12:38:04.212Z,28.70
2022-09-03T12:40:22.030Z,28.80
2022-09-03T12:42:51.026Z,29.10
2022-09-03T12:46:09.945Z,29.40
2022-09-03T12:48:18.642Z,29.30
2022-09-03T12:50:49.523Z,29.30
2022-09-03T12:53:26.555Z,29.10
2022-09-03T12:55:59.389Z,28.90
2022-09-03T12:59:02.523Z,28.90
2022-09-03T13:01:37.337Z,28.90
2022-09-03T13:04:08.008Z,29.00
2022-09-03T13:06:49.911Z,29.10
2022-09-03T13:09:21.890Z,29.10
2022-09-03T13:11:49.283Z,29.00
2022-09-03T13:14:18.548Z,28.90
2022-09-03T13:16:45.601Z,28.80
2022-09-03T13:19:23.432Z,28.70
2022-09-03T13:22:18.108Z,28.70
2022-09-03T13:25:14.522Z,28.90
2022-09-03T13:27:58.115Z,28.70
2022-09-03T13:30:41.220Z,28.60
2022-09-03T13:33:21.194Z,28.40
2022-09-03T13:36:05.293Z,28.20
2022-09-03T13:38:37.369Z,28.30
2022-09-03T13:41:05.663Z,28.30
2022-09-03T13:43:45.324Z,28.40
2022-09-03T13:46:40.274Z,28.60
2022-09-03T13:49:42.907Z,28.80
2022-09-03T13:52:22.472Z,28.80
2022-09-03T13:54:58.601Z,28.90
2022-09-03T13:57:49.588Z,28.80
2022-09-03T14:01:06.509Z,28.60
2022-09-03T14:03:33.736Z,28.60
2022-09-03T14:06:14.443Z,28.50
2022-09-03T14:09:07.257Z,28.50
2022-09-03T14:12:06.386Z,28.50
2022-09-03T14:14:40.465Z,28.40
2022-09-03T14:17:12.914Z,28.30
2022-09-03T14:19:45.564Z,28.20
2022-09-03T14:22:23.137Z,28.20
2022-09-03T14:25:16.377Z,28.00
2022-09-03T14:27:43.433Z,27.80
2022-09-03T14:30:16.372Z,27.80
2022-09-03T14:32:52.608Z,27.90
2022-09-03T14:35:29.671Z,27.90
2022-09-03T14:38:02.853Z,27.80
2022-09-03T14:40:56.262Z,27.90
2022-09-03T14:43:44.711Z,27.90
2022-09-03T14:46:30.629Z,28.10
2022-09-03T14:49:26.356Z,28.40
2022-09-03T14:52:03.538Z,28.90
2022-09-03T14:54:30.883Z,29.10
2022-09-03T14:57:12.862Z,29.10
2022-09-03T14:59:45.752Z,29.10
2022-09-03T15:02:27.517Z,28.90
2022-09-03T15:05:20.554Z,28.80
2022-09-03T15:07:55.672Z,28.60
2022-09-03T15:10:47.257Z,28.40
2022-09-03T15:13:26.243Z,28.40
2022-09-03T15:16:34.989Z,28.20
2022-09-03T15:19:19.231Z,28.10
2022-09-03T15:21:52.067Z,28.00
2022-09-03T15:24:18.971Z,27.90
2022-09-03T15:27:06.433Z,27.80
2022-09-03T15:29:45.221Z,27.80
2022-09-03T15:32:36.651Z,27.90
2022-09-03T15:35:03.557Z,27.80
2022-09-03T15:37:45.839Z,27.50
2022-09-03T15:40:29.807Z,27.40
2022-09-03T15:43:06.180Z,27.20
2022-09-03T15:45:52.157Z,27.00
2022-09-03T15:48:50.608Z,27.00
2022-09-03T15:51:52.216Z,27.10
2022-09-03T15:54:33.529Z,27.20
2022-09-03T15:57:28.660Z,27.10
2022-09-03T16:00:08.104Z,27.00
2022-09-03T16:02:45.661Z,26.90
2022-09-03T16:05:21.803Z,26.90
2022-09-03T16:08:08.161Z,26.90
2022-09-03T16:11:09.096Z,26.90
2022-09-03T16:13:57.034Z,26.80
2022-09-03T16:16:55.999Z,26.50
2022-09-03T16:20:04.838Z,26.50
2022-09-03T16:22:47.207Z,26.40
2022-09-03T16:25:23.241Z,26.40
2022-09-03T16:28:15.465Z,26.40
2022-09-03T16:31:12.167Z,26.40
2022-09-03T16:33:39.078Z,26.50
2022-09-03T16:36:15.978Z,26.50
2022-09-03T16:39:23.999Z,26.60
2022-09-03T16:41:59.569Z,26.50
2022-09-03T16:44:46.258Z,26.50
2022-09-03T16:47:30.019Z,26.30
2022-09-03T16:50:14.230Z,26.20
2022-09-03T16:52:59.916Z,26.10
2022-09-03T16:55:45.401Z,26.00
2022-09-03T16:58:24.203Z,25.90
2022-09-03T17:01:10.593Z,25.70
2022-09-03T17:03:53.195Z,25.70
2022-09-03T17:06:50.143Z,25.60
2022-09-03T17:09:26.254Z,25.70
2022-09-03T17:12:28.600Z,25.50
2022-09-03T17:15:03.007Z,25.50
2022-09-03T17:17:55.283Z,25.40
2022-09-03T17:20:56.899Z,25.30
2022-09-03T17:23:24.106Z,25.30
2022-09-03T17:25:51.146Z,25.10
2022-09-03T17:29:11.370Z,25.10
2022-09-03T17:32:11.901Z,25.10
2022-09-03T17:34:59.886Z,25.00
2022-09-03T17:37:41.682Z,24.90
2022-09-03T17:40:32.948Z,24.90
2022-09-03T17:43:41.324Z,24.90
2022-09-03T17:46:19.511Z,24.90
2022-09-03T17:48:54.916Z,24.80
2022-09-03T17:52:05.914Z,24.80
2022-09-03T17:54:44.463Z,24.80
2022-09-03T17:57:31.054Z,24.70
2022-09-03T18:00:11.312Z,24.50
2022-09-03T18:02:50.500Z,24.40
2022-09-03T18:05:44.388Z,24.30
2022-09-03T18:08:22.079Z,24.20
2022-09-03T18:11:10.103Z,24.10
2022-09-03T18:14:11.670Z,24.10
2022-09-03T18:16:52.312Z,24.00
2022-09-03T18:19:55.060Z,24.10
2022-09-03T18:22:46.803Z,24.10
2022-09-03T18:25:33.599Z,24.00
2022-09-03T18:28:26.191Z,24.00
2022-09-03T18:31:11.893Z,24.00
2022-09-03T18:33:57.447Z,24.00
2022-09-03T18:36:42.921Z,24.00
2022-09-03T18:39:43.719Z,23.90
2022-09-03T18:43:01.956Z,23.90
2022-09-03T18:46:45.959Z,23.80
2022-09-03T18:49:17.838Z,23.70
2022-09-03T18:52:16.630Z,23.70
2022-09-03T18:55:10.956Z,23.70
2022-09-03T18:58:11.713Z,23.60
2022-09-03T19:01:08.631Z,23.50
2022-09-03T19:04:12.840Z,23.40
2022-09-03T19:07:17.177Z,23.20
2022-09-03T19:10:07.622Z,23.20
2022-09-03T19:13:16.829Z,23.10
2022-09-03T19:16:36.000Z,23.10
2022-09-03T19:19:27.871Z,23.00
2022-09-03T19:22:27.072Z,22.90
2022-09-03T19:25:23.580Z,22.90
2022-09-03T19:28:38.362Z,22.90
2022-09-03T19:31:54.404Z,22.90
2022-09-03T19:34:51.911Z,22.90
2022-09-03T19:37:40.541Z,22.90
2022-09-03T19:40:51.200Z,22.90
2022-09-03T19:43:55.660Z,23.00
2022-09-03T19:47:00.097Z,22.90
2022-09-03T19:50:17.331Z,22.80
2022-09-03T19:53:21.257Z,22.70
2022-09-03T19:56:19.228Z,22.60
2022-09-03T19:59:29.329Z,22.50
2022-09-03T20:02:14.903Z,22.40
2022-09-03T20:05:06.537Z,22.40
2022-09-03T20:07:55.024Z,22.30
2022-09-03T20:10:24.379Z,22.20
2022-09-03T20:13:16.179Z,22.20
2022-09-03T20:16:22.696Z,22.20
2022-09-03T20:19:11.458Z,22.10
2022-09-03T20:21:57.216Z,22.10
2022-09-03T20:24:49.834Z,22.00
2022-09-03T20:27:35.603Z,22.00
2022-09-03T20:30:09.179Z,22.00
2022-09-03T20:32:45.419Z,22.00
2022-09-03T20:35:15.530Z,22.00
2022-09-03T20:37:53.341Z,22.00
2022-09-03T20:40:45.490Z,22.00
2022-09-03T20:43:44.256Z,22.00
2022-09-03T20:46:36.742Z,21.90
2022-09-03T20:49:09.497Z,21.90
2022-09-03T20:52:07.368Z,21.90
2022-09-03T20:54:44.711Z,21.80
2022-09-03T20:57:26.322Z,21.80
2022-09-03T21:00:23.273Z,21.80
2022-09-03T21:03:27.205Z,21.80
2022-09-03T21:06:06.761Z,21.70
2022-09-03T21:09:07.400Z,21.70
2022-09-03T21:11:39.448Z,21.60
2022-09-03T21:14:32.083Z,21.60
2022-09-03T21:17:23.489Z,21.60
2022-09-03T21:20:03.267Z,21.60
2022-09-03T21:22:42.151Z,21.50
2022-09-03T21:25:26.342Z,21.50
2022-09-03T21:28:14.543Z,21.50
2022-09-03T21:30:47.586Z,21.50
2022-09-03T21:33:23.471Z,21.40
2022-09-03T21:35:58.391Z,21.40
2022-09-03T21:38:28.101Z,21.40
2022-09-03T21:41:00.629Z,21.40
2022-09-03T21:43:45.434Z,21.40
2022-09-03T21:46:31.163Z,21.40
2022-09-03T21:49:06.921Z,21.50
2022-09-03T21:51:52.733Z,21.50
2022-09-03T21:54:30.916Z,21.50
2022-09-03T21:57:14.055Z,21.50
2022-09-03T21:59:49.894Z,21.50
2022-09-03T22:02:26.064Z,21.50
2022-09-03T22:04:55.108Z,21.50
2022-09-03T22:07:21.995Z,21.40
2022-09-03T22:10:20.333Z,21.40
2022-09-03T22:13:14.653Z,21.30
2022-09-03T22:15:48.197Z,21.30
2022-09-03T22:18:29.271Z,21.20
2022-09-03T22:21:12.683Z,21.20
2022-09-03T22:24:07.430Z,21.20
2022-09-03T22:26:55.952Z,21.10
2022-09-03T22:30:04.991Z,21.10
2022-09-03T22:33:03.251Z,21.00
2022-09-03T22:35:58.156Z,21.00
2022-09-03T22:39:00.423Z,20.90
2022-09-03T22:41:55.582Z,20.90
2022-09-03T22:44:47.153Z,20.90
2022-09-03T22:47:47.916Z,20.80
2022-09-03T22:50:29.605Z,20.80
2022-09-03T22:53:41.696Z,20.70
2022-09-03T22:56:12.462Z,20.70
2022-09-03T22:58:55.792Z,20.70
2022-09-03T23:01:25.945Z,20.70
2022-09-03T23:04:14.731Z,20.70
2022-09-03T23:06:51.091Z,20.70
2022-09-03T23:09:25.718Z,20.60
2022-09-03T23:12:02.013Z,20.60
2022-09-03T23:14:36.795Z,20.60
2022-09-03T23:17:12.550Z,20.60
2022-09-03T23:19:51.793Z,20.60
2022-09-03T23:22:36.213Z,20.60
2022-09-03T23:25:13.856Z,20.60
2022-09-03T23:27:53.623Z,20.60
2022-09-03T23:30:20.732Z,20.50
2022-09-03T23:32:52.925Z,20.50
2022-09-03T23:35:21.413Z,20.40
2022-09-03T23:37:53.419Z,20.40
2022-09-03T23:40:35.324Z,20.40
2022-09-03T23:43:17.744Z,20.40
2022-09-03T23:45:51.155Z,20.40
2022-09-03T23:48:30.356Z,20.40
2022-09-03T23:51:22.707Z,20.30
2022-09-03T23:54:05.016Z,20.30
2022-09-03T23:56:49.886Z,20.30
2022-09-03T23:59:32.769Z,20.30
